Time;durP1;ratioP1;P1;durP2;ratioP2;P2;SDS_P1;SDS_P2;PMS_P1;PMS_P2;Temp;Humidity;BMP_temperature;BMP_pressure;BME280_temperature;BME280_humidity;BME280_pressure;Samples;Min_cycle;Max_cycle;Signal;HPM_P1;HPM_P2
2023/06/17 00:02:20;;;;;;;12.63;7.65;;;22.30;70.40;;;;;;5058033;28;20111;-48
2023/06/17 00:04:47;;;;;;;13.13;8.27;;;22.20;70.80;;;;;;5057858;28;20040;-49
2023/06/17 00:07:12;;;;;;;10.35;8.60;;;22.20;70.90;;;;;;5057838;28;20048;-48
2023/06/17 00:09:41;;;;;;;9.77;8.20;;;22.20;71.10;;;;;;5057764;28;20025;-50
2023/06/17 00:12:08;;;;;;;11.27;8.05;;;22.10;71.40;;;;;;5057924;28;20021;-51
2023/06/17 00:14:34;;;;;;;10.02;7.43;;;22.10;71.90;;;;;;5058023;28;20033;-48
2023/06/17 00:17:00;;;;;;;10.67;8.17;;;22.00;72.00;;;;;;5057803;28;20082;-51
2023/06/17 00:19:27;;;;;;;8.40;7.57;;;22.00;72.30;;;;;;5057705;28;20107;-48
2023/06/17 00:21:54;;;;;;;9.63;8.23;;;22.00;72.40;;;;;;5057808;28;20108;-48
2023/06/17 00:24:20;;;;;;;13.98;8.77;;;22.00;72.40;;;;;;5058317;28;20102;-49
2023/06/17 00:26:47;;;;;;;9.27;8.20;;;21.90;72.90;;;;;;5057569;28;20033;-48
2023/06/17 00:29:13;;;;;;;12.18;7.72;;;21.90;73.10;;;;;;5039929;28;20107;-49
2023/06/17 00:31:39;;;;;;;11.18;8.48;;;21.80;73.30;;;;;;5057942;28;20399;-51
2023/06/17 00:34:05;;;;;;;11.05;8.20;;;21.80;73.40;;;;;;5057699;28;20029;-49
2023/06/17 00:36:31;;;;;;;9.52;7.32;;;21.80;73.80;;;;;;5039618;28;20441;-49
2023/06/17 00:38:56;;;;;;;14.83;8.77;;;21.80;74.00;;;;;;5057753;28;20033;-50
2023/06/17 00:41:22;;;;;;;13.10;8.15;;;21.80;74.20;;;;;;5057750;28;20055;-50
2023/06/17 00:43:48;;;;;;;10.47;8.40;;;21.70;74.30;;;;;;5039803;28;20090;-50
2023/06/17 00:46:38;;;;;;;9.15;7.50;;;21.70;74.50;;;;;;5039551;28;20032;-48
2023/06/17 00:49:09;;;;;;;11.63;7.80;;;21.70;74.90;;;;;;5057592;28;20033;-47
2023/06/17 00:51:36;;;;;;;9.75;8.30;;;21.60;74.80;;;;;;5057664;28;20025;-49
2023/06/17 00:54:03;;;;;;;8.70;7.30;;;21.60;75.60;;;;;;5057594;28;20043;-48
2023/06/17 00:56:34;;;;;;;10.38;7.65;;;21.50;75.60;;;;;;5039461;28;20041;-49
2023/06/17 00:59:01;;;;;;;14.15;9.02;;;21.40;75.90;;;;;;5057415;28;20036;-50
2023/06/17 01:01:29;;;;;;;10.50;9.10;;;21.40;76.00;;;;;;5057193;28;20097;-48
2023/06/17 01:03:58;;;;;;;14.15;9.35;;;21.40;76.40;;;;;;5035769;28;20025;-50
2023/06/17 01:06:50;;;;;;;13.90;9.38;;;21.40;76.80;;;;;;5054040;28;20036;-49
2023/06/17 01:09:23;;;;;;;12.40;9.25;;;21.30;77.60;;;;;;5036139;28;20122;-52
2023/06/17 01:11:53;;;;;;;11.45;9.80;;;21.30;77.40;;;;;;5054217;28;20033;-50
2023/06/17 01:14:20;;;;;;;13.52;10.57;;;21.20;78.00;;;;;;5036530;28;20503;-48
2023/06/17 01:16:50;;;;;;;12.35;8.88;;;21.20;78.40;;;;;;5036078;28;20544;-48
2023/06/17 01:19:23;;;;;;;12.60;10.70;;;21.10;78.80;;;;;;5053955;28;20033;-50
2023/06/17 01:21:53;;;;;;;11.13;9.93;;;21.10;79.50;;;;;;5036234;28;20183;-47
2023/06/17 01:24:28;;;;;;;11.75;9.70;;;21.10;79.80;;;;;;5035949;28;20041;-47
2023/06/17 01:26:59;;;;;;;12.13;10.65;;;21.00;79.90;;;;;;5019305;28;20068;-48
2023/06/17 01:29:30;;;;;;;14.82;10.52;;;21.00;80.00;;;;;;5053842;28;20040;-48
2023/06/17 01:31:57;;;;;;;12.07;9.73;;;20.90;80.10;;;;;;5053880;28;20032;-48
2023/06/17 01:34:35;;;;;;;11.05;9.95;;;20.90;80.70;;;;;;5053859;28;20029;-47
2023/06/17 01:37:05;;;;;;;13.38;10.88;;;20.90;80.90;;;;;;5053554;28;20055;-48
2023/06/17 01:39:34;;;;;;;14.05;9.82;;;20.80;81.70;;;;;;5035736;28;20029;-49
2023/06/17 01:42:01;;;;;;;12.68;10.40;;;20.80;82.20;;;;;;5035730;28;20057;-48
2023/06/17 01:44:27;;;;;;;14.35;12.10;;;20.70;82.50;;;;;;5035729;28;20045;-50
2023/06/17 01:46:54;;;;;;;11.93;10.05;;;20.70;82.80;;;;;;5035665;28;20063;-50
2023/06/17 01:49:20;;;;;;;12.25;10.48;;;20.60;83.20;;;;;;5035537;28;20598;-49
2023/06/17 01:51:46;;;;;;;11.25;9.60;;;20.60;83.70;;;;;;5053473;28;20422;-52
2023/06/17 01:54:12;;;;;;;15.93;9.70;;;20.50;84.40;;;;;;5053439;28;20099;-50
2023/06/17 01:56:38;;;;;;;11.98;10.20;;;20.40;84.80;;;;;;5053297;28;20025;-48
2023/06/17 01:59:04;;;;;;;11.23;9.10;;;20.40;85.30;;;;;;5053363;28;20040;-49
2023/06/17 02:01:30;;;;;;;11.70;10.15;;;20.40;85.70;;;;;;5035468;28;20040;-48
2023/06/17 02:03:57;;;;;;;15.25;9.85;;;20.30;85.90;;;;;;5053200;28;20514;-48
2023/06/17 02:06:23;;;;;;;12.30;9.85;;;20.30;86.80;;;;;;5035088;28;20025;-47
2023/06/17 02:08:49;;;;;;;12.77;9.85;;;20.20;87.40;;;;;;5095121;22;20407;-56
2023/06/17 02:11:15;;;;;;;13.13;10.10;;;20.10;88.10;;;;;;5032820;28;20025;-56
2023/06/17 02:13:40;;;;;;;12.15;9.73;;;20.10;89.00;;;;;;5015213;28;20407;-54
2023/06/17 02:16:06;;;;;;;12.57;11.27;;;20.10;88.60;;;;;;4998826;28;20033;-55
2023/06/17 02:18:33;;;;;;;12.20;10.23;;;20.10;89.00;;;;;;5015171;28;20017;-53
2023/06/17 02:21:02;;;;;;;13.35;10.52;;;20.00;89.60;;;;;;5052738;28;20479;-57
2023/06/17 02:23:28;;;;;;;12.32;10.35;;;20.00;89.80;;;;;;5052863;28;20410;-57
2023/06/17 02:25:55;;;;;;;12.23;10.95;;;19.90;90.10;;;;;;5052695;28;20021;-57
2023/06/17 02:28:21;;;;;;;12.02;10.73;;;19.90;90.20;;;;;;5052761;28;20081;-54
2023/06/17 02:30:46;;;;;;;11.90;10.00;;;19.90;90.20;;;;;;5052520;28;20017;-57
2023/06/17 02:33:17;;;;;;;14.30;11.48;;;19.90;90.30;;;;;;5052361;28;20031;-56
2023/06/17 02:35:44;;;;;;;13.48;10.90;;;19.90;90.40;;;;;;5033440;28;20033;-57
2023/06/17 02:38:13;;;;;;;12.15;10.48;;;19.80;90.60;;;;;;5034222;28;20033;-54
2023/06/17 02:40:39;;;;;;;13.10;10.85;;;19.80;90.90;;;;;;5034540;28;20044;-54
2023/06/17 02:43:05;;;;;;;12.60;11.40;;;19.70;90.90;;;;;;5052508;28;20017;-54
2023/06/17 02:45:31;;;;;;;13.05;10.35;;;19.70;91.10;;;;;;5052141;28;20398;-55
2023/06/17 02:47:56;;;;;;;13.48;11.15;;;19.70;91.30;;;;;;5052337;28;20051;-54
2023/06/17 02:50:23;;;;;;;13.48;10.77;;;19.60;91.40;;;;;;5034354;28;20035;-57
2023/06/17 02:52:55;;;;;;;15.55;10.63;;;19.60;91.50;;;;;;5034577;28;20028;-57
2023/06/17 02:55:22;;;;;;;18.00;10.70;;;19.60;91.70;;;;;;5034150;28;20029;-54
2023/06/17 02:57:48;;;;;;;12.65;10.88;;;19.50;91.70;;;;;;5052129;28;20063;-52
2023/06/17 03:00:15;;;;;;;13.18;10.63;;;19.50;91.80;;;;;;5034543;28;20091;-53
2023/06/17 03:02:41;;;;;;;11.48;10.18;;;19.50;91.90;;;;;;5044146;28;20033;-52
2023/06/17 03:05:07;;;;;;;10.43;9.38;;;19.40;92.00;;;;;;5038572;28;20116;-53
2023/06/17 03:07:37;;;;;;;;;;;19.40;91.90;;;;;;5041223;28;20482;-57
2023/06/17 03:10:03;;;;;;;12.65;9.77;;;19.40;91.50;;;;;;5042619;28;19913;-54
2023/06/17 03:12:32;;;;;;;12.02;10.77;;;19.40;91.90;;;;;;5034033;28;20112;-56
2023/06/17 03:14:58;;;;;;;11.43;10.18;;;19.40;92.00;;;;;;5037095;28;20055;-56
2023/06/17 03:17:25;;;;;;;10.88;9.25;;;19.40;92.30;;;;;;5034050;28;20071;-56
2023/06/17 03:19:51;;;;;;;10.82;9.77;;;19.30;92.20;;;;;;5035744;28;20037;-59
2023/06/17 03:22:17;;;;;;;11.38;9.85;;;19.30;92.20;;;;;;5050563;28;20455;-57
2023/06/17 03:24:47;;;;;;;12.52;10.40;;;19.30;92.00;;;;;;5040451;28;20121;-56
2023/06/17 03:27:13;;;;;;;14.20;10.23;;;19.30;92.00;;;;;;5029287;28;20061;-55
2023/06/17 03:29:39;;;;;;;16.02;10.88;;;19.30;92.20;;;;;;5041118;28;20047;-55
2023/06/17 03:32:06;;;;;;;16.98;10.90;;;19.30;92.30;;;;;;5020930;28;20112;-56
2023/06/17 03:34:33;;;;;;;23.25;10.98;;;19.30;92.20;;;;;;5033783;28;20408;-54
2023/06/17 03:37:02;;;;;;;11.00;9.90;;;19.30;92.20;;;;;;5049784;28;20062;-51
2023/06/17 03:39:28;;;;;;;;;;;19.30;92.10;;;;;;5038739;28;20044;-55
2023/06/17 03:41:54;;;;;;;11.23;10.07;;;19.30;91.80;;;;;;5044829;28;19935;-56
2023/06/17 03:44:20;;;;;;;11.27;9.60;;;19.20;92.00;;;;;;5034729;28;20520;-56
2023/06/17 03:46:47;;;;;;;11.07;9.97;;;19.20;92.00;;;;;;5049885;28;20063;-55
2023/06/17 03:49:12;;;;;;;16.50;10.35;;;19.20;91.90;;;;;;5045545;28;20298;-52
2023/06/17 03:51:38;;;;;;;17.75;9.95;;;19.20;92.20;;;;;;5045494;28;20029;-56
2023/06/17 03:54:04;;;;;;;16.23;10.68;;;19.10;92.40;;;;;;5047670;28;20042;-57
2023/06/17 03:56:35;;;;;;;21.02;10.68;;;19.20;92.30;;;;;;5045688;28;20036;-54
2023/06/17 03:59:02;;;;;;;23.90;10.57;;;19.20;92.40;;;;;;5051618;28;20562;-56
2023/06/17 04:01:28;;;;;;;13.45;10.93;;;19.20;92.30;;;;;;5053101;28;20082;-55
2023/06/17 04:03:54;;;;;;;10.43;9.18;;;19.30;92.30;;;;;;5071465;28;20440;-55
2023/06/17 04:06:20;;;;;;;10.77;9.68;;;19.30;92.10;;;;;;5071113;28;20032;-56
2023/06/17 04:08:47;;;;;;;14.40;10.80;;;19.30;92.20;;;;;;5052951;28;20024;-57
2023/06/17 04:11:14;;;;;;;16.73;11.45;;;19.30;92.20;;;;;;5070056;28;20426;-55
2023/06/17 04:13:40;;;;;;;;;;;19.30;92.20;;;;;;5053901;28;20031;-56
2023/06/17 04:16:07;;;;;;;13.45;10.55;;;19.30;91.90;;;;;;5071130;28;19991;-55
2023/06/17 04:18:32;;;;;;;;;;;19.30;92.20;;;;;;5052453;28;20025;-54
2023/06/17 04:20:59;;;;;;;11.60;10.40;;;19.30;92.00;;;;;;5053213;28;20004;-57
2023/06/17 04:23:29;;;;;;;14.52;10.98;;;19.30;92.10;;;;;;5053116;28;20612;-51
2023/06/17 04:25:56;;;;;;;12.32;10.23;;;19.30;92.20;;;;;;5053269;28;20036;-54
2023/06/17 04:28:23;;;;;;;11.02;9.93;;;19.40;92.20;;;;;;5036671;28;20116;-56
2023/06/17 04:30:51;;;;;;;12.60;9.95;;;19.40;92.20;;;;;;5071083;28;20123;-58
2023/06/17 04:33:18;;;;;;;11.70;9.98;;;19.40;92.10;;;;;;5053123;28;20033;-57
2023/06/17 04:35:44;;;;;;;11.98;9.75;;;19.50;92.10;;;;;;5070778;28;20032;-55
2023/06/17 04:38:11;;;;;;;10.98;9.52;;;19.50;92.10;;;;;;5054766;28;20040;-56
2023/06/17 04:40:38;;;;;;;11.75;10.52;;;19.60;91.90;;;;;;5056803;28;20055;-56
2023/06/17 04:43:05;;;;;;;11.90;9.88;;;19.60;91.70;;;;;;5040269;28;20149;-54
2023/06/17 04:45:34;;;;;;;11.02;9.75;;;19.70;92.10;;;;;;5056593;28;20540;-54
2023/06/17 04:48:05;;;;;;;11.10;9.48;;;19.80;92.20;;;;;;5056625;28;20033;-53
2023/06/17 04:50:33;;;;;;;11.55;9.20;;;19.80;92.10;;;;;;5056413;28;20040;-52
2023/06/17 04:53:05;;;;;;;13.98;9.98;;;19.80;91.90;;;;;;5074587;28;20047;-55
2023/06/17 04:55:35;;;;;;;11.13;9.10;;;19.90;91.90;;;;;;5056440;28;20058;-55
2023/06/17 04:58:05;;;;;;;10.73;9.68;;;19.90;91.90;;;;;;5040247;28;20444;-54
2023/06/17 05:00:44;;;;;;;13.45;9.45;;;20.00;92.00;;;;;;5056388;28;20036;-56
2023/06/17 05:03:14;;;;;;;15.40;8.98;;;20.00;92.10;;;;;;5056533;28;20047;-56
2023/06/17 05:05:40;;;;;;;13.07;9.80;;;20.10;91.80;;;;;;5056223;28;20128;-55
2023/06/17 05:08:06;;;;;;;11.18;9.30;;;20.20;91.80;;;;;;5056277;28;20024;-54
2023/06/17 05:10:33;;;;;;;11.93;9.17;;;20.20;91.20;;;;;;5056246;28;20028;-58
2023/06/17 05:12:59;;;;;;;12.18;9.80;;;20.30;91.20;;;;;;5056413;28;20672;-53
2023/06/17 05:15:27;;;;;;;12.20;9.48;;;20.40;90.70;;;;;;5055923;28;20071;-54
2023/06/17 05:17:53;;;;;;;11.82;9.25;;;20.50;90.60;;;;;;5056239;28;20039;-56
2023/06/17 05:20:19;;;;;;;11.15;9.85;;;20.50;90.60;;;;;;5056096;28;20033;-54
2023/06/17 05:22:45;;;;;;;10.43;9.00;;;20.60;90.40;;;;;;5074103;28;20043;-56
2023/06/17 05:25:12;;;;;;;11.30;9.50;;;20.70;90.00;;;;;;5055883;28;20399;-59
2023/06/17 05:27:38;;;;;;;10.73;9.63;;;20.70;89.90;;;;;;5055947;28;20032;-59
2023/06/17 05:30:06;;;;;;;18.30;11.25;;;20.70;90.00;;;;;;5039301;28;20113;-60
2023/06/17 05:32:32;;;;;;;14.68;10.43;;;20.80;90.40;;;;;;5055164;28;20025;-59
2023/06/17 05:34:59;;;;;;;16.75;9.98;;;20.90;90.40;;;;;;5056455;28;20083;-53
2023/06/17 05:37:25;;;;;;;15.50;10.25;;;20.90;90.60;;;;;;5035931;28;20086;-53
2023/06/17 05:39:51;;;;;;;17.52;10.63;;;21.00;90.30;;;;;;5035952;28;20123;-50
2023/06/17 05:42:17;;;;;;;11.43;10.05;;;21.00;90.00;;;;;;5035872;28;20037;-49
2023/06/17 05:44:44;;;;;;;15.10;10.48;;;21.10;90.40;;;;;;5035648;28;20047;-53
2023/06/17 05:47:11;;;;;;;13.52;11.00;;;21.10;90.80;;;;;;5035732;28;20132;-52
2023/06/17 05:49:39;;;;;;;13.13;10.48;;;21.20;90.90;;;;;;5052937;28;20096;-52
2023/06/17 05:52:05;;;;;;;15.40;10.50;;;21.30;90.80;;;;;;5035637;28;20100;-52
2023/06/17 05:54:32;;;;;;;14.25;10.68;;;21.30;90.50;;;;;;5035610;28;20036;-54
2023/06/17 05:56:58;;;;;;;14.57;10.90;;;21.30;90.40;;;;;;5035495;28;20029;-50
2023/06/17 05:59:26;;;;;;;14.23;11.30;;;21.40;90.50;;;;;;5053392;28;20074;-50
2023/06/17 06:01:52;;;;;;;14.30;10.68;;;21.50;91.00;;;;;;5035567;28;20052;-52
2023/06/17 06:04:18;;;;;;;13.02;10.10;;;21.60;90.50;;;;;;5035274;28;20403;-51
2023/06/17 06:06:44;;;;;;;19.45;10.70;;;21.60;90.10;;;;;;5035183;28;20036;-51
2023/06/17 06:09:10;;;;;;;14.20;10.17;;;21.60;89.10;;;;;;5035149;28;20103;-54
2023/06/17 06:11:35;;;;;;;14.50;11.15;;;21.70;87.90;;;;;;5035188;28;20025;-52
2023/06/17 06:14:01;;;;;;;13.67;9.80;;;21.70;88.00;;;;;;5018831;28;20446;-54
2023/06/17 06:16:27;;;;;;;22.17;10.70;;;21.70;87.70;;;;;;5018687;28;20072;-55
2023/06/17 06:18:54;;;;;;;16.27;11.32;;;21.80;87.20;;;;;;5034932;28;20025;-53
2023/06/17 06:21:21;;;;;;;13.82;10.60;;;21.80;86.50;;;;;;5035143;28;20040;-54
2023/06/17 06:23:49;;;;;;;12.80;9.40;;;21.90;86.30;;;;;;5035147;28;20061;-54
2023/06/17 06:26:15;;;;;;;11.85;9.95;;;22.00;85.40;;;;;;5034738;28;20036;-52
2023/06/17 06:28:42;;;;;;;14.85;9.93;;;22.00;83.90;;;;;;5034899;28;20531;-55
2023/06/17 06:31:07;;;;;;;12.20;9.70;;;22.00;83.20;;;;;;5035133;28;20061;-50
2023/06/17 06:33:35;;;;;;;10.50;9.40;;;22.10;82.80;;;;;;5034834;28;20025;-50
2023/06/17 06:36:03;;;;;;;14.80;10.73;;;22.10;82.40;;;;;;5053802;28;20175;-52
2023/06/17 06:38:31;;;;;;;13.80;10.75;;;22.10;83.20;;;;;;5054744;28;20032;-52
2023/06/17 06:40:56;;;;;;;13.18;11.10;;;22.30;83.30;;;;;;5037716;28;20387;-54
2023/06/17 06:43:23;;;;;;;13.10;11.43;;;22.30;83.20;;;;;;5054249;28;20032;-54
2023/06/17 06:45:59;;;;;;;12.85;9.93;;;22.30;83.10;;;;;;5054670;28;20407;-52
2023/06/17 06:48:25;;;;;;;11.93;9.57;;;22.30;81.70;;;;;;5054305;28;20033;-50
2023/06/17 06:50:51;;;;;;;13.30;10.43;;;22.40;80.80;;;;;;5054447;28;20017;-51
2023/06/17 06:53:21;;;;;;;12.70;10.98;;;22.40;81.00;;;;;;5054442;28;20039;-54
2023/06/17 06:55:47;;;;;;;14.10;10.18;;;22.50;81.90;;;;;;5054206;28;20031;-49
2023/06/17 06:58:13;;;;;;;11.45;9.95;;;22.50;81.40;;;;;;5072310;28;20024;-49
2023/06/17 07:00:39;;;;;;;13.27;10.00;;;22.60;81.10;;;;;;5053423;28;20037;-50
2023/06/17 07:03:07;;;;;;;12.40;10.15;;;22.60;79.70;;;;;;5037544;28;20060;-51
2023/06/17 07:05:33;;;;;;;13.52;10.68;;;22.70;80.40;;;;;;5034131;28;20087;-50
2023/06/17 07:08:01;;;;;;;13.57;10.10;;;22.70;78.70;;;;;;5033937;28;20064;-51
2023/06/17 07:10:27;;;;;;;13.32;9.98;;;22.70;78.40;;;;;;5033984;28;20060;-53
2023/06/17 07:12:55;;;;;;;11.55;9.65;;;22.70;79.20;;;;;;5034098;28;20059;-49
2023/06/17 07:15:22;;;;;;;11.90;10.35;;;22.70;77.90;;;;;;5033922;28;20584;-49
2023/06/17 07:17:49;;;;;;;16.85;12.77;;;22.80;78.40;;;;;;5034054;28;20434;-50
2023/06/17 07:20:15;;;;;;;13.13;11.20;;;22.80;79.40;;;;;;5033720;28;20033;-49
2023/06/17 07:22:43;;;;;;;13.95;11.30;;;22.80;79.00;;;;;;5033386;28;20075;-50
2023/06/17 07:25:09;;;;;;;14.85;12.32;;;22.80;78.90;;;;;;5033699;28;20376;-51
2023/06/17 07:27:35;;;;;;;14.30;12.35;;;22.80;78.80;;;;;;5033302;28;20060;-50
2023/06/17 07:30:02;;;;;;;13.60;11.40;;;22.90;80.30;;;;;;5033945;28;20021;-53
2023/06/17 07:32:28;;;;;;;18.10;11.90;;;22.90;79.90;;;;;;5033894;28;20387;-50
2023/06/17 07:34:55;;;;;;;15.18;13.38;;;22.90;80.50;;;;;;5033660;28;20032;-49
2023/06/17 07:37:21;;;;;;;16.88;11.73;;;23.00;80.80;;;;;;5033949;28;20065;-57
2023/06/17 07:39:48;;;;;;;13.93;12.25;;;23.10;82.60;;;;;;5033309;28;20029;-54
2023/06/17 07:42:17;;;;;;;15.60;12.05;;;23.20;82.50;;;;;;5051424;28;20032;-55
2023/06/17 07:44:44;;;;;;;14.75;12.07;;;23.20;82.00;;;;;;5051551;28;20068;-59
2023/06/17 07:47:10;;;;;;;13.68;11.50;;;23.30;82.30;;;;;;5051539;28;20025;-57
2023/06/17 07:49:36;;;;;;;16.33;12.53;;;23.20;79.70;;;;;;5051525;28;20074;-56
2023/06/17 07:52:03;;;;;;;14.93;11.63;;;23.30;80.20;;;;;;5033789;28;20028;-57
2023/06/17 07:54:28;;;;;;;;;;;23.20;79.50;;;;;;5051950;28;20033;-56
2023/06/17 07:56:54;;;;;;;15.77;11.73;;;23.30;79.40;;;;;;5051331;28;19905;-59
2023/06/17 07:59:20;;;;;;;14.43;12.90;;;23.30;78.30;;;;;;5051543;28;20025;-59
2023/06/17 08:01:46;;;;;;;16.77;11.27;;;23.30;78.40;;;;;;5051539;28;20020;-58
2023/06/17 08:04:12;;;;;;;16.00;12.93;;;23.40;78.60;;;;;;5051393;28;20499;-54
2023/06/17 08:06:40;;;;;;;13.43;12.07;;;23.40;77.40;;;;;;5051167;28;20112;-58
2023/06/17 08:09:06;;;;;;;16.02;13.43;;;23.50;76.60;;;;;;5058539;22;20033;-47
2023/06/17 08:11:32;;;;;;;14.57;12.13;;;23.60;78.30;;;;;;5032333;28;20032;-52
2023/06/17 08:13:58;;;;;;;14.83;12.20;;;23.60;76.50;;;;;;5055362;28;20110;-49
2023/06/17 08:16:24;;;;;;;15.73;11.80;;;23.60;75.70;;;;;;5035793;28;20021;-50
2023/06/17 08:18:49;;;;;;;16.53;12.67;;;23.60;74.90;;;;;;5053322;28;20025;-48
2023/06/17 08:21:15;;;;;;;13.47;11.73;;;23.60;74.20;;;;;;5072683;28;20024;-46
2023/06/17 08:23:41;;;;;;;14.97;12.90;;;23.60;75.10;;;;;;5057300;28;20402;-48
2023/06/17 08:26:07;;;;;;;21.87;11.93;;;23.60;75.60;;;;;;5074897;28;20112;-50
2023/06/17 08:28:33;;;;;;;14.60;12.87;;;23.70;76.30;;;;;;5057199;28;20406;-50
2023/06/17 08:30:59;;;;;;;16.40;12.53;;;23.90;76.50;;;;;;5074849;28;20071;-61
2023/06/17 08:33:25;;;;;;;15.07;11.83;;;24.00;75.30;;;;;;5056888;28;20043;-47
2023/06/17 08:35:50;;;;;;;15.87;11.23;;;24.10;74.70;;;;;;5074675;28;20082;-46
2023/06/17 08:38:16;;;;;;;15.40;11.90;;;24.20;73.70;;;;;;5056850;28;20070;-49
2023/06/17 08:40:47;;;;;;;15.60;12.43;;;24.30;72.70;;;;;;5074748;28;20032;-48
2023/06/17 08:43:19;;;;;;;15.10;12.25;;;24.20;72.50;;;;;;5074890;28;20102;-50
2023/06/17 08:45:48;;;;;;;13.82;11.75;;;24.30;72.40;;;;;;5074427;28;20111;-46
2023/06/17 08:48:15;;;;;;;13.70;11.45;;;24.40;72.20;;;;;;5074561;28;20048;-49
2023/06/17 08:50:41;;;;;;;12.07;10.85;;;24.40;71.00;;;;;;5056648;28;20036;-48
2023/06/17 08:53:08;;;;;;;13.32;10.60;;;24.50;70.70;;;;;;5074532;28;20068;-51
2023/06/17 08:55:34;;;;;;;11.98;10.57;;;24.60;70.40;;;;;;5074347;28;20039;-54
2023/06/17 08:58:02;;;;;;;12.48;9.88;;;24.60;68.00;;;;;;5056845;28;20040;-48
2023/06/17 09:00:28;;;;;;;16.25;11.38;;;24.60;67.30;;;;;;5056335;28;20032;-51
2023/06/17 09:02:58;;;;;;;15.37;11.10;;;24.70;67.40;;;;;;5074602;28;20028;-52
2023/06/17 09:05:24;;;;;;;11.20;9.27;;;24.70;66.00;;;;;;5074585;28;20123;-52
2023/06/17 09:07:49;;;;;;;12.93;10.23;;;24.80;65.60;;;;;;5074536;28;20099;-52
2023/06/17 09:10:15;;;;;;;13.33;10.63;;;24.80;65.40;;;;;;5074543;28;20032;-52
2023/06/17 09:12:41;;;;;;;11.77;10.40;;;24.90;65.40;;;;;;5074652;28;20021;-46
2023/06/17 09:15:14;;;;;;;11.47;9.03;;;24.90;65.40;;;;;;5055897;28;20039;-51
2023/06/17 09:17:43;;;;;;;12.18;9.65;;;25.00;64.10;;;;;;5056406;28;20039;-47
2023/06/17 09:20:12;;;;;;;10.73;9.63;;;25.10;64.00;;;;;;5074006;28;20466;-46
2023/06/17 09:22:43;;;;;;;15.65;10.23;;;25.20;64.90;;;;;;5073787;28;20071;-46
2023/06/17 09:25:11;;;;;;;11.90;10.30;;;25.20;64.10;;;;;;5073475;28;20490;-51
2023/06/17 09:27:51;;;;;;;11.35;9.85;;;25.30;64.20;;;;;;5073807;28;20023;-49
2023/06/17 09:30:17;;;;;;;11.95;10.57;;;25.30;64.60;;;;;;5073842;28;20077;-49
2023/06/17 09:32:44;;;;;;;12.48;10.27;;;25.30;63.70;;;;;;5073914;28;20036;-47
2023/06/17 09:35:14;;;;;;;;;;;25.50;64.50;;;;;;5074114;28;20044;-51
2023/06/17 09:37:52;;;;;;;16.73;11.07;;;25.50;65.40;;;;;;5073823;28;19930;-50
2023/06/17 09:40:19;;;;;;;13.25;11.25;;;25.60;65.10;;;;;;5055734;28;20032;-49
2023/06/17 09:42:46;;;;;;;13.02;10.75;;;25.70;65.00;;;;;;5055778;28;20508;-46
2023/06/17 09:45:19;;;;;;;;;;;25.80;63.40;;;;;;5073955;28;20135;-52
2023/06/17 09:47:53;;;;;;;10.90;9.75;;;25.80;62.50;;;;;;5073582;28;19920;-53
2023/06/17 09:50:20;;;;;;;13.65;9.95;;;25.80;62.20;;;;;;5055472;28;20045;-49
2023/06/17 09:52:48;;;;;;;;;;;25.80;63.10;;;;;;5073816;28;20020;-47
2023/06/17 09:55:14;;;;;;;13.07;10.48;;;25.90;62.20;;;;;;5073241;28;19908;-47
2023/06/17 09:57:43;;;;;;;11.65;10.13;;;26.00;61.80;;;;;;5055373;28;20494;-47
2023/06/17 10:00:10;;;;;;;11.85;9.15;;;26.10;62.00;;;;;;5073296;28;20078;-47
2023/06/17 10:02:39;;;;;;;12.23;7.45;;;26.20;63.00;;;;;;5073369;28;20068;-49
2023/06/17 10:05:12;;;;;;;10.45;8.10;;;26.30;60.30;;;;;;5055091;28;20058;-47
2023/06/17 10:07:41;;;;;;;15.57;10.57;;;26.30;60.50;;;;;;5023006;28;20033;-49
2023/06/17 10:10:11;;;;;;;11.48;9.13;;;26.30;58.00;;;;;;5072971;28;20039;-51
2023/06/17 10:12:41;;;;;;;18.13;9.65;;;26.40;59.90;;;;;;5055078;28;20028;-48
2023/06/17 10:15:07;;;;;;;12.65;10.25;;;26.50;59.70;;;;;;5072950;28;20064;-47
2023/06/17 10:17:37;;;;;;;13.05;8.73;;;26.60;59.00;;;;;;5038407;28;20081;-59
2023/06/17 10:20:05;;;;;;;10.25;8.70;;;26.60;61.10;;;;;;5072805;28;20037;-59
2023/06/17 10:22:34;;;;;;;11.63;7.97;;;26.70;60.60;;;;;;5072818;28;20024;-57
2023/06/17 10:25:00;;;;;;;12.65;8.45;;;26.70;59.80;;;;;;5055101;28;20727;-58
2023/06/17 10:27:26;;;;;;;11.57;9.18;;;26.90;59.30;;;;;;5072827;28;20067;-58
2023/06/17 10:29:51;;;;;;;12.53;8.77;;;27.00;57.80;;;;;;5072950;28;20394;-57
2023/06/17 10:32:24;;;;;;;10.17;7.53;;;27.00;58.10;;;;;;5055010;28;20044;-58
2023/06/17 10:35:05;;;;;;;10.07;8.75;;;27.10;58.80;;;;;;5072560;28;20025;-59
2023/06/17 10:37:31;;;;;;;13.00;7.95;;;27.20;57.00;;;;;;5054712;28;20037;-59
2023/06/17 10:40:23;;;;;;;12.70;10.98;;;27.30;58.50;;;;;;5072591;28;20029;-57
2023/06/17 10:42:58;;;;;;;11.68;10.48;;;27.40;57.40;;;;;;5072490;28;20033;-59
2023/06/17 10:45:25;;;;;;;13.55;10.73;;;27.50;58.20;;;;;;5073156;28;20032;-59
2023/06/17 10:47:51;;;;;;;17.20;11.05;;;27.50;57.70;;;;;;5089576;28;20028;-58
2023/06/17 10:50:21;;;;;;;13.87;10.87;;;27.50;57.60;;;;;;5090936;28;20386;-59
2023/06/17 10:52:53;;;;;;;14.10;10.82;;;27.70;57.50;;;;;;5063923;28;20513;-58
2023/06/17 10:55:19;;;;;;;10.95;9.63;;;27.80;57.60;;;;;;5085434;28;20379;-59
2023/06/17 10:57:45;;;;;;;15.83;12.20;;;27.80;59.30;;;;;;5081677;28;20487;-58
2023/06/17 11:00:12;;;;;;;14.73;11.23;;;27.80;57.60;;;;;;5081953;28;20036;-59
2023/06/17 11:02:38;;;;;;;13.60;9.82;;;27.90;57.90;;;;;;5084307;28;20456;-59
2023/06/17 11:05:05;;;;;;;13.18;8.13;;;28.00;58.30;;;;;;5067624;28;20045;-57
2023/06/17 11:07:31;;;;;;;8.05;5.97;;;28.10;56.90;;;;;;5075573;28;20135;-58
2023/06/17 11:09:57;;;;;;;11.95;7.53;;;28.30;55.10;;;;;;5077941;28;20029;-59
2023/06/17 11:12:23;;;;;;;12.40;8.67;;;28.30;54.70;;;;;;5074528;28;20078;-59
2023/06/17 11:14:49;;;;;;;11.07;8.03;;;28.40;54.20;;;;;;5077138;28;20582;-58
2023/06/17 11:17:15;;;;;;;15.57;9.03;;;28.40;53.80;;;;;;5078123;28;20060;-59
2023/06/17 11:19:41;;;;;;;10.50;7.80;;;28.40;53.00;;;;;;5074739;28;20032;-59
2023/06/17 11:22:07;;;;;;;14.27;7.43;;;28.40;55.10;;;;;;5085997;28;20020;-58
2023/06/17 11:24:37;;;;;;;10.82;8.98;;;28.60;55.50;;;;;;5081799;28;20107;-53
2023/06/17 11:27:06;;;;;;;17.42;12.82;;;28.80;55.30;;;;;;5073879;28;20513;-58
2023/06/17 11:29:32;;;;;;;11.10;7.70;;;29.00;54.40;;;;;;5088588;28;20494;-54
2023/06/17 11:31:59;;;;;;;14.27;7.40;;;29.10;54.70;;;;;;5082991;28;20028;-51
2023/06/17 11:34:32;;;;;;;7.40;6.28;;;29.00;53.00;;;;;;5079215;28;20501;-48
2023/06/17 11:37:00;;;;;;;10.48;7.72;;;29.10;54.50;;;;;;5089105;28;20032;-52
2023/06/17 11:39:30;;;;;;;10.70;7.20;;;29.30;53.70;;;;;;5076788;28;20119;-50
2023/06/17 11:42:03;;;;;;;11.70;7.78;;;29.40;52.60;;;;;;5087708;28;20397;-49
2023/06/17 11:44:32;;;;;;;9.43;6.20;;;29.60;51.90;;;;;;5077910;28;20024;-50
2023/06/17 11:47:08;;;;;;;11.77;8.52;;;29.70;51.20;;;;;;5057133;28;20410;-53
2023/06/17 11:49:35;;;;;;;9.13;7.10;;;29.70;51.40;;;;;;5087252;28;20020;-49
2023/06/17 11:52:09;;;;;;;15.50;6.15;;;29.80;50.50;;;;;;5074880;28;20067;-53
2023/06/17 11:54:44;;;;;;;15.23;6.93;;;29.80;49.30;;;;;;5083847;28;20103;-50
2023/06/17 11:57:10;;;;;;;9.27;6.32;;;29.70;50.00;;;;;;5075750;28;20063;-50
2023/06/17 11:59:35;;;;;;;9.67;6.53;;;29.70;49.50;;;;;;5087101;28;20067;-51
2023/06/17 12:02:02;;;;;;;6.95;5.82;;;29.80;50.10;;;;;;5076257;28;20028;-51
2023/06/17 12:04:30;;;;;;;7.57;5.20;;;29.90;48.00;;;;;;5084859;28;20494;-48
2023/06/17 12:06:56;;;;;;;10.75;5.53;;;30.10;48.20;;;;;;5073307;28;20458;-52
2023/06/17 12:09:22;;;;;;;7.18;5.03;;;30.10;45.40;;;;;;5084764;28;20107;-49
2023/06/17 12:11:48;;;;;;;5.72;5.10;;;30.10;45.30;;;;;;5074546;28;20103;-52
2023/06/17 12:14:14;;;;;;;5.63;4.80;;;30.20;45.90;;;;;;5068913;28;20054;-50
2023/06/17 12:16:41;;;;;;;7.70;5.38;;;30.40;45.30;;;;;;5076269;28;20025;-49
2023/06/17 12:19:19;;;;;;;5.80;4.97;;;30.50;45.00;;;;;;5073129;28;20115;-50
2023/06/17 12:21:45;;;;;;;9.60;5.03;;;30.60;44.90;;;;;;5073558;28;20058;-50
2023/06/17 12:24:14;;;;;;;6.97;5.00;;;30.40;44.30;;;;;;5087438;28;20032;-49
2023/06/17 12:26:40;;;;;;;6.18;4.90;;;30.60;45.80;;;;;;5078782;28;20020;-51
2023/06/17 12:29:06;;;;;;;6.67;4.20;;;30.80;43.40;;;;;;5061821;28;20047;-51
2023/06/17 12:31:32;;;;;;;7.43;4.57;;;30.80;39.70;;;;;;5084363;28;20502;-52
2023/06/17 12:33:57;;;;;;;5.60;4.33;;;31.00;40.50;;;;;;5056406;28;20106;-50
2023/06/17 12:36:25;;;;;;;7.17;4.10;;;31.00;41.70;;;;;;5085757;28;20055;-49
2023/06/17 12:38:51;;;;;;;7.55;4.22;;;31.30;41.60;;;;;;5080077;28;20282;-50